Terminal Aerodrome Forecast
Issued by NWS Green Bay, WI

Home | Current Version | Previous Version | Graphics & Text | Print | Product List | Glossary On
Versions: 1 2 3 4 5 6 7 8 9 10 11 12 13 14 15 16 17 18 19 20 21 22 23 24 25 26 27 28
436
FTUS43 KGRB 302332
TAFGRB
TAF
KGRB 302332Z 0100/0124 22004KT P6SM -RA SCT015 OVC035
      TEMPO 0100/0104 5SM -RA BR BKN015 BKN025
     FM010400 24004KT 5SM -RA BR OVC015
     FM010900 27005KT P6SM -RASN SCT008 OVC010
     FM011500 28009KT P6SM OVC025=

USA.gov is the U.S. government's official web portal to all federal, state and local government web resources and services.